Latest Weather Observations for Kiama

IDN60801

Issued at 4:22 pm EDT Monday 19 November 2018 (issued every 10 minutes, with the page automatically refreshed every 10 minutes)

About weather observations | Map of weather stations | Latest weather observations for NSW | Other Formats
Station Details ID: 068242 Name: KIAMA (BOMBO HEADLAND) Lat: -34.65 Lon: 150.86 Height: 15.5 m
Data from the previous 72 hours. | See also: Recent months at Kiama
Date/Time
EDT
Temp
°C
App
Temp
°C
Dew
Point
°C
Rel
Hum
%
Delta-T
°C
Wind Press
QNH
hPa
Press
MSL
hPa
Rain since
9am
mm
Dir  Spd
km/h
Gust
km/h
Spd
kts
Gust
kts
19/04:00pm 21.4 19.2 12.0 55 5.3 NE 15 20 8 11 - - 0.0
19/03:30pm 20.9 18.0 12.3 58 4.8 NE 19 22 10 12 - - 0.0
19/03:00pm 20.9 18.5 12.8 60 4.6 NE 17 22 9 12 - - 0.0
19/02:30pm 21.9 21.2 14.3 62 4.4 NE 11 17 6 9 - - 0.0
19/02:00pm 21.6 20.7 13.8 61 4.5 NE 11 17 6 9 - - 0.0
19/01:30pm 21.5 20.7 13.9 62 4.4 NE 11 17 6 9 - - 0.0
19/01:00pm 21.6 21.2 14.0 62 4.4 NE 9 17 5 9 - - 0.0
19/12:30pm 20.9 19.6 13.6 63 4.2 NE 13 15 7 8 - - 0.0
19/12:00pm 21.1 20.8 14.3 65 4.0 ENE 9 13 5 7 - - 0.0
19/11:30am 20.3 19.6 14.2 68 3.5 ESE 11 13 6 7 - - 0.0
19/11:00am 20.3 19.7 14.7 70 3.3 SE 11 13 6 7 - - 0.0
19/10:30am 19.8 19.0 14.0 69 3.3 SE 11 13 6 7 - - 0.0
19/10:00am 18.9 17.9 13.3 70 3.2 SE 11 13 6 7 - - 0.0
19/09:30am 18.7 17.5 12.7 68 3.4 SE 11 17 6 9 - - 0.0
19/09:00am 19.4 19.0 13.1 67 3.6 ESE 7 9 4 5 - - 0.0
19/08:30am 18.8 19.7 13.0 69 3.3 CALM 0 6 0 3 - - 0.0
19/08:00am 17.5 18.3 12.4 72 2.8 CALM 0 0 0 0 - - 0.0
19/07:30am 16.5 17.3 12.7 78 2.1 CALM 0 2 0 1 - - 0.0
19/07:00am 15.9 16.7 12.6 81 1.8 CALM 0 4 0 2 - - 0.0
19/06:30am 14.9 14.4 12.0 83 1.6 S 6 6 3 3 - - 0.0
19/06:00am 14.9 14.7 11.9 82 1.6 S 4 6 2 3 - - 0.0
19/05:30am 15.4 14.8 11.8 79 1.9 W 6 7 3 4 - - 0.0
19/05:00am 14.9 14.2 11.9 82 1.6 W 7 9 4 5 - - 0.0
19/04:30am 14.9 14.4 12.0 83 1.6 W 6 7 3 4 - - 0.0
19/04:00am 15.0 14.3 12.0 82 1.6 W 7 9 4 5 - - 0.0
19/03:30am 14.5 13.3 11.5 82 1.6 W 9 11 5 6 - - 0.0
19/03:00am 14.4 13.1 11.4 82 1.6 W 9 11 5 6 - - 0.0
19/02:30am 14.6 13.3 11.2 80 1.8 W 9 9 5 5 - - 0.0
19/02:00am 14.8 13.9 11.4 80 1.8 WNW 7 11 4 6 - - 0.0
19/01:30am 14.5 13.3 11.5 82 1.6 W 9 11 5 6 - - 0.0
19/01:00am 14.8 13.9 11.2 79 1.9 WNW 7 11 4 6 - - 0.0
19/12:30am 15.1 14.3 11.1 77 2.1 W 6 7 3 4 - - 0.0
19/12:00am 15.8 15.8 11.0 73 2.6 N 2 6 1 3 - - 0.0
 
Date/Time
EDT
Temp
°C
App
Temp
°C
Dew
Point
°C
Rel
Hum
%
Delta-T
°C
Wind Press
QNH
hPa
Press
MSL
hPa
Rain since
9am
mm
Dir  Spd
km/h
Gust
km/h
Spd
kts
Gust
kts
18/11:30pm 16.7 15.9 11.8 73 2.7 N 7 13 4 7 - - 0.0
18/11:00pm 16.4 16.5 11.6 73 2.6 N 2 6 1 3 - - 0.0
18/10:30pm 17.9 16.6 12.6 71 3.0 NE 11 17 6 9 - - 0.0
18/10:00pm 17.9 16.2 12.4 70 3.1 ENE 13 19 7 10 - - 0.0
18/09:30pm 17.6 16.4 11.6 68 3.3 ENE 9 11 5 6 - - 0.0
18/09:00pm 17.5 16.2 11.1 66 3.5 ENE 9 13 5 7 - - 0.0
18/08:30pm 17.5 16.2 11.1 66 3.5 ENE 9 13 5 7 - - 0.0
18/08:00pm 17.7 16.3 11.0 65 3.6 E 9 15 5 8 - - 0.0
18/07:30pm 18.2 16.9 11.3 64 3.8 ESE 9 13 5 7 - - 0.0
18/07:00pm 18.4 17.0 11.0 62 4.0 ESE 9 15 5 8 - - 0.0
18/06:30pm 18.9 17.1 11.0 60 4.3 ESE 11 15 6 8 - - 0.0
18/06:00pm 19.3 17.5 10.8 58 4.6 ESE 11 17 6 9 - - 0.0
18/05:30pm 19.6 17.8 10.9 57 4.7 ESE 11 17 6 9 - - 0.0
18/05:00pm 18.9 16.7 10.7 59 4.4 ESE 13 17 7 9 - - 0.0
18/04:30pm 18.9 16.6 10.5 58 4.5 ESE 13 17 7 9 - - 0.0
18/04:00pm 19.7 17.1 10.7 56 4.9 ESE 15 22 8 12 - - 0.0
18/03:30pm 19.7 16.7 10.7 56 4.9 SE 17 20 9 11 - - 0.0
18/03:00pm 20.0 17.2 11.2 57 4.8 SE 17 20 9 11 - - 0.0
18/02:30pm 20.1 17.4 11.8 59 4.6 SE 17 22 9 12 - - 0.0
18/02:00pm 19.9 17.0 10.9 56 4.9 SE 17 20 9 11 - - 0.0
18/01:30pm 20.1 17.4 11.8 59 4.6 SE 17 20 9 11 - - 0.0
18/01:00pm 19.9 17.2 11.7 59 4.5 SSE 17 20 9 11 - - 0.0
18/12:30pm 19.7 16.9 11.2 58 4.7 SE 17 22 9 12 - - 0.0
18/12:00pm 19.5 16.4 11.5 60 4.4 SSE 19 20 10 11 - - 0.0
18/11:30am 19.3 16.4 11.1 59 4.5 SSE 17 20 9 11 - - 0.0
18/11:00am 19.4 16.9 11.2 59 4.5 S 15 19 8 10 - - 0.0
18/10:30am 19.1 16.5 10.6 58 4.6 SSE 15 20 8 11 - - 0.0
18/10:00am 18.9 16.2 10.5 58 4.5 SSE 15 20 8 11 - - 0.0
18/09:30am 18.5 16.2 10.6 60 4.3 S 13 17 7 9 - - 0.0
18/09:00am 18.2 15.5 10.3 60 4.2 S 15 19 8 10 - - 4.0
18/08:30am 18.0 15.3 10.4 61 4.1 S 15 20 8 11 - - 4.0
18/08:00am 17.9 15.7 10.8 63 3.8 S 13 17 7 9 - - 4.0
18/07:30am 17.4 14.3 10.3 63 3.8 S 17 22 9 12 - - 4.0
18/07:00am 16.8 14.2 10.6 67 3.3 S 15 17 8 9 - - 4.0
18/06:30am 16.0 14.0 10.1 68 3.1 SSW 11 15 6 8 - - 4.0
18/06:00am 17.1 13.4 10.2 64 3.7 SSE 20 24 11 13 - - 4.0
18/05:30am 17.1 13.4 10.2 64 3.7 SSE 20 24 11 13 - - 4.0
18/05:00am 17.1 13.2 10.7 66 3.4 SSE 22 26 12 14 - - 4.0
18/04:30am 17.1 13.0 10.2 64 3.7 SSE 22 26 12 14 - - 4.0
18/04:00am 17.3 13.1 11.1 67 3.3 SSE 24 28 13 15 - - 4.0
18/03:30am 17.4 12.8 11.2 67 3.4 SSE 26 30 14 16 - - 4.0
18/03:00am 17.3 13.1 11.1 67 3.3 SSE 24 28 13 15 - - 4.0
18/02:30am 17.6 13.2 11.6 68 3.3 SSE 26 32 14 17 - - 4.0
18/02:00am 17.5 13.5 11.8 69 3.1 SE 24 30 13 16 - - 4.0
18/01:30am 17.6 13.8 12.3 71 2.9 SE 24 30 13 16 - - 4.0
18/01:00am 17.9 14.5 12.4 70 3.1 SSE 22 26 12 14 - - 4.0
18/12:30am 17.9 13.9 11.9 68 3.3 SSE 24 28 13 15 - - 4.0
18/12:00am 18.1 15.2 12.8 71 3.0 SSE 20 24 11 13 - - 4.0
 
Date/Time
EDT
Temp
°C
App
Temp
°C
Dew
Point
°C
Rel
Hum
%
Delta-T
°C
Wind Press
QNH
hPa
Press
MSL
hPa
Rain since
9am
mm
Dir  Spd
km/h
Gust
km/h
Spd
kts
Gust
kts
17/11:30pm 17.7 14.7 11.9 69 3.2 SE 19 22 10 12 - - 4.0
17/11:00pm 18.0 15.2 13.1 73 2.8 SSE 20 26 11 14 - - 4.0
17/10:30pm 18.0 15.7 13.1 73 2.8 SSE 17 20 9 11 - - 4.0
17/10:00pm 17.8 14.9 12.9 73 2.7 SSE 20 24 11 13 - - 4.0
17/09:30pm 18.1 15.0 13.4 74 2.7 SSE 22 28 12 15 - - 4.0
17/09:00pm 18.1 13.7 13.0 72 2.9 SSE 28 32 15 17 - - 4.0
17/08:30pm 18.2 13.9 13.3 73 2.8 SSE 28 33 15 18 - - 4.0
17/08:00pm 18.1 13.8 13.2 73 2.8 SSE 28 32 15 17 - - 4.0
17/07:30pm 17.9 16.0 14.2 79 2.1 SSW 17 28 9 15 - - 4.0
17/07:00pm 17.9 15.6 14.0 78 2.2 S 19 24 10 13 - - 4.0
17/06:30pm 17.8 14.0 13.7 77 2.3 SSE 26 33 14 18 - - 4.0
17/06:00pm 18.8 15.8 13.6 72 3.0 S 22 28 12 15 - - 4.0
17/05:30pm 18.7 15.9 14.2 75 2.6 S 22 28 12 15 - - 4.0
17/05:00pm 18.6 15.0 13.2 71 3.1 S 24 32 13 17 - - 4.0
17/04:30pm 18.4 14.5 13.3 72 2.9 S 26 35 14 19 - - 4.0
17/04:00pm 18.3 14.8 13.4 73 2.8 S 24 32 13 17 - - 4.0
17/03:30pm 18.1 14.5 13.2 73 2.8 S 24 32 13 17 - - 4.0
17/03:00pm 17.9 14.3 14.2 79 2.1 S 26 35 14 19 - - 4.0
17/02:30pm 17.0 13.2 14.6 86 1.4 SSW 28 39 15 21 - - 4.0
17/02:00pm 16.6 13.5 14.4 87 1.3 SSW 24 35 13 19 - - 2.8
17/01:30pm 17.3 14.6 14.6 84 1.6 SSW 22 33 12 18 - - 0.8
17/01:00pm 16.8 13.3 14.6 87 1.3 SSW 26 33 14 18 - - 0.8
17/12:30pm 16.8 11.9 14.4 86 1.4 SSW 33 39 18 21 - - 0.2
17/12:00pm 16.7 12.8 14.3 86 1.4 SSW 28 39 15 21 - - 0.0
17/11:30am 17.9 11.9 13.4 75 2.5 S 37 46 20 25 - - 0.0
17/11:00am 18.4 12.2 13.7 74 2.7 S 39 50 21 27 - - 0.0
17/10:30am 18.8 13.9 14.3 75 2.6 SSW 33 46 18 25 - - 0.0
17/10:00am 19.2 15.3 13.4 69 3.3 SSW 26 37 14 20 - - 0.0
17/09:30am 19.1 14.6 13.7 71 3.1 SSW 30 39 16 21 - - 0.0
17/09:00am 18.9 15.1 13.5 71 3.1 SSW 26 33 14 18 - - 0.0
17/08:30am 18.7 15.7 13.6 72 2.9 SSW 22 33 12 18 - - 0.0
17/08:00am 18.0 15.5 13.5 75 2.5 SSW 19 32 10 17 - - 0.0
17/07:30am 17.8 16.3 13.1 74 2.6 SSW 13 22 7 12 - - 0.0
17/07:00am 17.3 16.1 12.8 75 2.5 SSW 11 17 6 9 - - 0.0
17/06:30am 16.8 15.2 12.7 77 2.3 SW 13 20 7 11 - - 0.0
17/06:00am 15.9 14.8 13.2 84 1.5 SW 11 15 6 8 - - 0.0
17/05:30am 15.1 14.6 12.8 86 1.3 WSW 7 9 4 5 - - 0.0
17/05:00am 15.0 14.8 12.9 87 1.2 SW 6 7 3 4 - - 0.0
17/04:30am 14.6 14.2 12.5 87 1.1 WSW 6 7 3 4 - - 0.0
17/04:00am 14.3 13.6 12.0 86 1.2 WSW 7 9 4 5 - - 0.0
17/03:30am 14.9 14.6 12.6 86 1.3 WSW 6 7 3 4 - - 0.0
17/03:00am 14.9 14.0 12.6 86 1.3 W 9 11 5 6 - - 0.0
17/02:30am 14.6 13.5 12.1 85 1.4 W 9 9 5 5 - - 0.0
17/02:00am 14.7 14.1 12.2 85 1.4 W 7 9 4 5 - - 0.0
17/01:30am 14.4 13.6 11.7 84 1.4 W 7 9 4 5 - - 0.0
17/01:00am 15.0 13.9 12.0 82 1.6 W 9 11 5 6 - - 0.0
17/12:30am 15.0 14.3 12.0 82 1.6 W 7 9 4 5 - - 0.0
17/12:00am 14.9 13.8 11.9 82 1.6 W 9 11 5 6 - - 0.0
 
Date/Time
EDT
Temp
°C
App
Temp
°C
Dew
Point
°C
Rel
Hum
%
Delta-T
°C
Wind Press
QNH
hPa
Press
MSL
hPa
Rain since
9am
mm
Dir  Spd
km/h
Gust
km/h
Spd
kts
Gust
kts
16/11:30pm 14.8 13.7 11.8 82 1.6 WNW 9 13 5 7 - - 0.0
16/11:00pm 15.0 13.8 11.6 80 1.8 W 9 11 5 6 - - 0.0
16/10:30pm 15.2 14.4 11.6 79 1.9 W 7 7 4 4 - - 0.0
16/10:00pm 15.2 14.0 11.6 79 1.9 W 9 11 5 6 - - 0.0
16/09:30pm 15.1 13.9 11.5 79 1.9 W 9 9 5 5 - - 0.0
16/09:00pm 15.5 14.8 11.9 79 2.0 WNW 7 7 4 4 - - 0.0
16/08:30pm 16.2 16.5 12.2 77 2.2 NNW 2 6 1 3 - - 0.0
16/08:00pm 17.1 17.9 12.4 74 2.6 CALM 0 0 0 0 - - 0.0
16/07:30pm 17.9 18.7 12.4 70 3.1 CALM 0 0 0 0 - - 0.0
16/07:00pm 18.7 19.6 12.9 69 3.3 CALM 0 4 0 2 - - 0.0
16/06:30pm 18.9 18.5 13.1 69 3.3 SSE 7 9 4 5 - - 0.0
16/06:00pm 19.0 18.3 13.2 69 3.3 S 9 11 5 6 - - 0.0
16/05:30pm 18.8 17.7 13.2 70 3.2 S 11 13 6 7 - - 0.0
16/05:00pm 18.8 18.1 13.2 70 3.2 S 9 13 5 7 - - 0.0
16/04:30pm 19.1 18.1 13.5 70 3.2 S 11 15 6 8 - - 0.0

Other Formats:

Comma delimited format used in spreadsheet applications
http://www.bom.gov.au/fwo/IDN60801/IDN60801.95749.axf

JavaScript Object Notation format (JSON) in row-major order
http://www.bom.gov.au/fwo/IDN60801/IDN60801.95749.json